Time;durP1;ratioP1;P1;durP2;ratioP2;P2;SDS_P1;SDS_P2;PMS_P1;PMS_P2;Temp;Humidity;BMP_temperature;BMP_pressure;BME280_temperature;BME280_humidity;BME280_pressure;Samples;Min_cycle;Max_cycle;Signal;HPM_P1;HPM_P2
2022/01/12 00:01:20;;;;;;;;;;;-2.70;70.10;;;;;;5044495;28;19924;-78
2022/01/12 00:03:47;;;;;;;;;;;-2.70;70.00;;;;;;5056860;28;19931;-80
2022/01/12 00:06:14;;;;;;;;;;;-2.70;69.80;;;;;;5048766;28;20001;-78
2022/01/12 00:08:41;;;;;;;;;;;-2.70;70.40;;;;;;5052426;28;19956;-78
2022/01/12 00:11:08;;;;;;;;;;;-2.70;69.80;;;;;;5052985;28;19925;-76
2022/01/12 00:13:35;;;;;;;;;;;-2.70;69.60;;;;;;5052530;28;19932;-80
2022/01/12 00:16:03;;;;;;;;;;;-2.70;69.20;;;;;;5057792;28;19932;-76
2022/01/12 00:18:30;;;;;;;;;;;-2.70;69.80;;;;;;5063123;28;19932;-79
2022/01/12 00:20:57;;;;;;;;;;;-2.70;70.00;;;;;;5056831;28;19925;-77
2022/01/12 00:23:24;;;;;;;;;;;-2.70;69.40;;;;;;5055107;28;19928;-78
2022/01/12 00:34:17;;;;;;;;;;;-2.40;68.40;;;;;;5047670;28;19929;-76
2022/01/12 00:36:44;;;;;;;;;;;-2.30;67.20;;;;;;5053884;28;20439;-79
2022/01/12 00:39:11;;;;;;;;;;;-2.10;66.40;;;;;;5045803;28;19926;-76
2022/01/12 00:41:39;;;;;;;;;;;-2.00;66.00;;;;;;5056863;28;19928;-79
2022/01/12 00:44:08;;;;;;;;;;;-1.80;65.10;;;;;;5028379;28;20300;-77
2022/01/12 00:46:36;;;;;;;;;;;-1.50;64.10;;;;;;5044366;28;19929;-78
2022/01/12 00:49:03;;;;;;;;;;;-1.20;63.40;;;;;;5061583;28;19925;-79
2022/01/12 00:51:34;;;;;;;;;;;-1.00;62.10;;;;;;5047792;28;20447;-78
2022/01/12 00:54:02;;;;;;;;;;;-0.80;61.30;;;;;;5049815;28;19924;-78
2022/01/12 00:56:29;;;;;;;;;;;-0.60;60.60;;;;;;5049691;28;19928;-78
2022/01/12 00:58:56;;;;;;;;;;;-0.40;59.90;;;;;;5050969;28;20016;-79
2022/01/12 01:01:23;;;;;;;;;;;-0.30;59.30;;;;;;5051559;28;19925;-78
2022/01/12 01:03:50;;;;;;;;;;;-0.20;58.50;;;;;;5072287;28;19924;-77
2022/01/12 01:06:18;;;;;;;;;;;0.00;58.10;;;;;;5042685;28;20019;-78
2022/01/12 01:08:45;;;;;;;;;;;0.10;57.80;;;;;;5052358;28;19935;-76
2022/01/12 01:11:12;;;;;;;;;;;0.30;56.90;;;;;;5039578;28;19990;-78
2022/01/12 01:13:48;;;;;;;;;;;0.40;56.50;;;;;;5051587;28;19935;-77
2022/01/12 01:16:24;;;;;;;;;;;0.40;56.10;;;;;;5056570;28;20014;-79
2022/01/12 01:27:07;;;;;;;;;;;0.10;58.20;;;;;;5040256;28;20522;-77
2022/01/12 01:29:34;;;;;;;;;;;-0.10;58.80;;;;;;5033956;28;19928;-77
2022/01/12 01:32:01;;;;;;;;;;;-0.30;59.80;;;;;;5047163;28;19929;-76
2022/01/12 01:34:28;;;;;;;;;;;-0.40;59.80;;;;;;5041760;28;20385;-78
2022/01/12 01:36:56;;;;;;;;;;;-0.50;59.90;;;;;;5042594;28;19929;-76
2022/01/12 01:39:24;;;;;;;;;;;-0.50;59.40;;;;;;5036461;28;19928;-77
2022/01/12 01:41:53;;;;;;;;;;;-0.50;59.30;;;;;;5039602;28;19925;-79
2022/01/12 01:55:06;;;;;;;;;;;-1.10;61.80;;;;;;5064597;28;19925;-77
2022/01/12 01:57:33;;;;;;;;;;;-1.20;62.00;;;;;;5054216;28;19925;-79
2022/01/12 02:00:01;;;;;;;;;;;-1.20;62.10;;;;;;5037103;28;19929;-76
2022/01/12 02:02:28;;;;;;;;;;;-1.20;62.40;;;;;;5041764;28;20388;-78
2022/01/12 02:04:55;;;;;;;;;;;-1.20;62.60;;;;;;5064836;28;20397;-77
2022/01/12 02:07:22;;;;;;;;;;;-1.20;62.30;;;;;;5039291;28;19979;-78
2022/01/12 02:09:48;;;;;;;;;;;-1.10;61.80;;;;;;5048006;28;19933;-77
2022/01/12 02:12:23;;;;;;;;;;;-1.00;61.30;;;;;;5057633;28;20011;-76
2022/01/12 02:14:51;;;;;;;;;;;-0.80;60.30;;;;;;5061652;28;19979;-79
2022/01/12 02:17:22;;;;;;;;;;;-0.50;59.60;;;;;;5063234;28;19925;-76
2022/01/12 02:37:12;;;;;;;;;;;0.30;56.00;;;;;;5045480;28;19959;-78
2022/01/12 02:39:58;;;;;;;;;;;0.30;56.00;;;;;;5046228;28;19925;-79
2022/01/12 02:42:26;;;;;;;;;;;0.50;55.30;;;;;;5054249;28;19982;-79
2022/01/12 02:55:58;;;;;;;;;;;0.60;55.10;;;;;;5068138;28;19929;-79
2022/01/12 02:58:25;;;;;;;;;;;0.60;55.00;;;;;;5045281;28;19929;-76
2022/01/12 03:03:39;;;;;;;;;;;0.70;54.70;;;;;;5051792;28;19924;-78
2022/01/12 03:06:07;;;;;;;;;;;0.80;54.50;;;;;;5060164;28;20407;-76
2022/01/12 03:08:37;;;;;;;;;;;0.70;54.50;;;;;;5057038;28;19924;-78
2022/01/12 03:11:08;;;;;;;;;;;0.80;54.30;;;;;;5062809;28;19925;-78
2022/01/12 03:13:35;;;;;;;;;;;0.80;55.00;;;;;;5055995;28;19932;-78
2022/01/12 03:16:11;;;;;;;;;;;0.90;53.60;;;;;;5073247;28;19970;-77
2022/01/12 03:18:37;;;;;;;;;;;1.00;53.60;;;;;;5046054;28;19925;-76
2022/01/12 03:21:05;;;;;;;;;;;0.90;53.60;;;;;;5035840;28;19948;-76
2022/01/12 03:23:32;;;;;;;;;;;0.90;53.30;;;;;;5041293;28;19932;-77
2022/01/12 03:25:59;;;;;;;;;;;1.00;53.00;;;;;;5040663;28;19928;-78
2022/01/12 03:28:26;;;;;;;;;;;1.00;52.90;;;;;;5051718;28;20010;-79
2022/01/12 03:33:38;;;;;;;;;;;0.90;52.80;;;;;;5046603;28;19937;-76
2022/01/12 03:38:55;;;;;;;;;;;0.90;52.90;;;;;;5040374;28;19936;-76
2022/01/12 03:41:23;;;;;;;;;;;0.90;53.00;;;;;;5045712;28;19996;-76
2022/01/12 03:43:52;;;;;;;;;;;0.90;53.50;;;;;;5034747;28;20020;-76
2022/01/12 03:46:22;;;;;;;;;;;0.90;53.60;;;;;;5036558;28;20040;-77
2022/01/12 03:48:49;;;;;;;;;;;0.60;54.80;;;;;;5062730;28;19928;-77
2022/01/12 03:51:16;;;;;;;;;;;0.10;56.70;;;;;;5027947;28;20507;-75
2022/01/12 03:53:42;;;;;;;;;;;-0.10;57.90;;;;;;5036497;28;19933;-79
2022/01/12 03:56:09;;;;;;;;;;;-0.30;58.20;;;;;;5022597;28;19925;-76
2022/01/12 03:58:36;;;;;;;;;;;-0.50;58.70;;;;;;5049513;28;20277;-76
2022/01/12 04:01:04;;;;;;;;;;;-0.50;58.40;;;;;;5047213;28;19974;-76
2022/01/12 04:03:37;;;;;;;;;;;-0.40;57.70;;;;;;5054896;28;19958;-75
2022/01/12 04:08:49;;;;;;;;;;;-0.10;56.70;;;;;;5051177;28;19973;-75
2022/01/12 04:11:16;;;;;;;;;;;0.10;56.40;;;;;;5074995;28;19925;-78
2022/01/12 04:13:44;;;;;;;;;;;0.10;56.20;;;;;;5072289;28;20408;-77
2022/01/12 04:16:13;;;;;;;;;;;0.20;56.10;;;;;;5067730;28;19959;-76
2022/01/12 04:18:41;;;;;;;;;;;0.30;55.70;;;;;;5049217;28;19975;-79
2022/01/12 04:21:09;;;;;;;;;;;0.30;55.70;;;;;;5050890;28;20464;-76
2022/01/12 04:23:37;;;;;;;;;;;0.30;55.80;;;;;;5041203;28;19928;-77
2022/01/12 04:26:10;;;;;;;;;;;0.30;55.80;;;;;;5064511;28;19924;-79
2022/01/12 04:28:38;;;;;;;;;;;0.40;55.70;;;;;;5030473;28;19924;-79
2022/01/12 04:31:06;;;;;;;;;;;0.40;55.70;;;;;;5032892;28;19962;-78
2022/01/12 04:33:34;;;;;;;;;;;0.40;55.70;;;;;;5044820;28;19983;-76
2022/01/12 04:36:01;;;;;;;;;;;0.40;55.30;;;;;;5050924;28;19934;-77
2022/01/12 04:38:30;;;;;;;;;;;0.50;55.30;;;;;;5056348;28;19925;-79
2022/01/12 04:40:56;;;;;;;;;;;0.50;55.30;;;;;;5068410;28;20451;-78
2022/01/12 04:43:24;;;;;;;;;;;0.50;55.30;;;;;;5063163;28;20388;-76
2022/01/12 04:50:46;;;;;;;;;;;0.50;55.40;;;;;;5038258;28;19991;-77
2022/01/12 04:53:14;;;;;;;;;;;0.50;55.30;;;;;;5042086;28;19971;-77
2022/01/12 04:55:42;;;;;;;;;;;0.50;55.20;;;;;;5039725;28;19929;-78
2022/01/12 04:58:10;;;;;;;;;;;0.50;55.10;;;;;;5042659;28;20340;-79
2022/01/12 05:00:37;;;;;;;;;;;0.50;55.20;;;;;;5036728;28;19950;-79
2022/01/12 05:08:52;;;;;;;;;;;0.40;55.30;;;;;;5049396;28;19929;-77
2022/01/12 05:14:05;;;;;;;;;;;0.30;56.00;;;;;;5072245;28;20410;-78
2022/01/12 05:16:31;;;;;;;;;;;0.20;56.20;;;;;;5046497;28;20370;-78
2022/01/12 05:19:00;;;;;;;;;;;0.20;56.30;;;;;;5059069;28;19947;-76
2022/01/12 05:21:27;;;;;;;;;;;0.20;56.30;;;;;;5043587;28;19929;-77
2022/01/12 05:23:54;;;;;;;;;;;0.20;56.10;;;;;;5047874;28;19929;-77
2022/01/12 05:26:20;;;;;;;;;;;0.20;56.10;;;;;;5041568;28;20289;-77
2022/01/12 05:28:47;;;;;;;;;;;0.30;55.80;;;;;;5037278;28;19928;-78
2022/01/12 05:31:15;;;;;;;;;;;0.30;55.80;;;;;;5043981;28;19987;-79
2022/01/12 05:33:47;;;;;;;;;;;0.30;56.00;;;;;;5047681;28;19925;-79
2022/01/12 05:36:16;;;;;;;;;;;0.30;56.00;;;;;;5045773;28;19929;-75
2022/01/12 05:38:43;;;;;;;;;;;0.30;55.90;;;;;;5072715;28;19990;-79
2022/01/12 05:41:10;;;;;;;;;;;0.30;55.90;;;;;;5067788;28;19924;-76
2022/01/12 05:43:39;;;;;;;;;;;0.20;56.00;;;;;;5027910;28;19929;-79
2022/01/12 05:46:13;;;;;;;;;;;0.20;55.80;;;;;;5043700;28;19935;-79
2022/01/12 05:51:28;;;;;;;;;;;0.30;55.60;;;;;;5035280;28;19929;-76
2022/01/12 05:53:55;;;;;;;;;;;0.20;56.00;;;;;;5047119;28;19939;-77
2022/01/12 05:56:22;;;;;;;;;;;0.20;55.90;;;;;;5071240;28;19925;-78
2022/01/12 05:58:50;;;;;;;;;;;0.20;55.70;;;;;;5043221;28;20435;-78
2022/01/12 06:01:17;;;;;;;;;;;0.20;55.60;;;;;;5059649;28;19932;-78
2022/01/12 06:03:44;;;;;;;;;;;0.20;55.60;;;;;;5070727;28;19925;-77
2022/01/12 06:06:11;;;;;;;;;;;0.20;55.90;;;;;;5070064;28;19934;-76
2022/01/12 06:08:38;;;;;;;;;;;0.10;56.20;;;;;;5065058;28;20407;-77
2022/01/12 06:11:07;;;;;;;;;;;0.10;56.00;;;;;;5023272;28;19979;-76
2022/01/12 06:13:33;;;;;;;;;;;0.10;56.00;;;;;;5046765;28;20453;-78
2022/01/12 06:16:00;;;;;;;;;;;0.10;56.00;;;;;;5068946;28;19933;-78
2022/01/12 06:18:27;;;;;;;;;;;0.20;55.60;;;;;;5037274;28;20411;-77
2022/01/12 06:20:54;;;;;;;;;;;0.20;55.50;;;;;;5038778;28;19929;-77
2022/01/12 06:23:21;;;;;;;;;;;0.30;54.90;;;;;;5040633;28;19924;-77
2022/01/12 06:25:48;;;;;;;;;;;0.30;55.00;;;;;;5045720;28;19978;-77
2022/01/12 06:28:34;;;;;;;;;;;0.30;55.00;;;;;;5067696;28;20423;-78
2022/01/12 06:31:10;;;;;;;;;;;0.30;55.00;;;;;;5039165;28;19956;-77
2022/01/12 06:33:39;;;;;;;;;;;0.30;54.90;;;;;;5032106;28;20010;-77
2022/01/12 06:36:06;;;;;;;;;;;0.30;55.20;;;;;;5031749;28;20397;-77
2022/01/12 06:38:33;;;;;;;;;;;0.20;55.10;;;;;;5039773;28;19971;-77
2022/01/12 06:41:00;;;;;;;;;;;0.30;55.30;;;;;;5049574;28;19980;-77
2022/01/12 06:43:28;;;;;;;;;;;0.20;55.50;;;;;;5044404;28;19928;-78
2022/01/12 06:45:56;;;;;;;;;;;0.20;55.70;;;;;;5052445;28;19929;-76
2022/01/12 06:48:23;;;;;;;;;;;0.10;55.90;;;;;;5042867;28;19939;-78
2022/01/12 06:50:50;;;;;;;;;;;0.00;56.00;;;;;;5044720;28;19925;-78
2022/01/12 06:53:17;;;;;;;;;;;0.00;55.70;;;;;;5067933;28;19928;-78
2022/01/12 06:55:43;;;;;;;;;;;0.00;56.00;;;;;;5064543;28;20384;-78
2022/01/12 06:58:10;;;;;;;;;;;-0.10;56.40;;;;;;5036921;28;19933;-78
2022/01/12 07:00:38;;;;;;;;;;;-0.10;56.30;;;;;;5073223;28;19936;-77
2022/01/12 07:03:05;;;;;;;;;;;0.00;56.40;;;;;;5037285;28;19967;-77
2022/01/12 07:05:32;;;;;;;;;;;-0.10;56.40;;;;;;5054556;28;19971;-76
2022/01/12 07:07:59;;;;;;;;;;;0.00;56.40;;;;;;5028837;28;19948;-78
2022/01/12 07:10:26;;;;;;;;;;;0.10;56.00;;;;;;5043376;28;19925;-77
2022/01/12 07:12:52;;;;;;;;;;;0.20;55.40;;;;;;5039049;28;19935;-78
2022/01/12 07:15:19;;;;;;;;;;;0.20;55.30;;;;;;5051803;28;20351;-78
2022/01/12 07:17:47;;;;;;;;;;;0.30;55.00;;;;;;5035952;28;19925;-77
2022/01/12 07:20:14;;;;;;;;;;;0.30;54.90;;;;;;5055606;28;19974;-77
2022/01/12 07:22:41;;;;;;;;;;;0.30;54.70;;;;;;5086697;28;19978;-77
2022/01/12 07:25:07;;;;;;;;;;;0.40;54.70;;;;;;5061944;28;19982;-77
2022/01/12 07:27:34;;;;;;;;;;;0.40;54.70;;;;;;5056609;28;19924;-77
2022/01/12 07:30:02;;;;;;;;;;;0.30;54.90;;;;;;5036698;28;19925;-79
2022/01/12 07:32:29;;;;;;;;;;;0.30;55.30;;;;;;5050877;28;19925;-77
2022/01/12 07:34:56;;;;;;;;;;;0.30;55.50;;;;;;5055314;28;19925;-78
2022/01/12 07:37:23;;;;;;;;;;;0.30;55.40;;;;;;5048109;28;19924;-76
2022/01/12 07:39:50;;;;;;;;;;;0.30;55.10;;;;;;5056405;28;20389;-77
2022/01/12 07:42:17;;;;;;;;;;;0.30;55.20;;;;;;5046259;28;19932;-77
2022/01/12 07:44:44;;;;;;;;;;;0.30;55.00;;;;;;5031969;28;19925;-78
2022/01/12 07:47:11;;;;;;;;;;;0.30;54.90;;;;;;5028872;28;19932;-78
2022/01/12 07:49:37;;;;;;;;;;;0.30;54.80;;;;;;5019050;28;20455;-76
2022/01/12 07:52:05;;;;;;;;;;;0.40;54.50;;;;;;5026107;28;19933;-78
2022/01/12 07:54:31;;;;;;;;;;;0.40;54.30;;;;;;5033349;28;20389;-77
2022/01/12 07:56:58;;;;;;;;;;;0.80;53.60;;;;;;5041267;28;19928;-77
2022/01/12 07:59:25;;;;;;;;;;;1.50;52.10;;;;;;5059299;28;20393;-78
2022/01/12 08:01:52;;;;;;;;;;;1.90;50.60;;;;;;5067567;28;20305;-78
2022/01/12 08:04:19;;;;;;;;;;;2.20;49.50;;;;;;5054210;28;19932;-77
2022/01/12 08:06:49;;;;;;;;;;;2.30;49.50;;;;;;5042820;28;19925;-76
2022/01/12 08:09:16;;;;;;;;;;;2.40;49.50;;;;;;5067997;28;19932;-77
2022/01/12 08:11:43;;;;;;;;;;;2.40;49.60;;;;;;5064238;28;20207;-77
2022/01/12 08:14:09;;;;;;;;;;;2.50;48.70;;;;;;5038612;28;19925;-77
2022/01/12 08:16:36;;;;;;;;;;;2.50;48.80;;;;;;5043985;28;20417;-78
2022/01/12 08:19:03;;;;;;;;;;;2.50;48.60;;;;;;5032066;28;19975;-77
2022/01/12 08:21:30;;;;;;;;;;;2.60;48.30;;;;;;5033908;28;19928;-78
2022/01/12 08:23:57;;;;;;;;;;;2.80;48.30;;;;;;5024897;28;19933;-77
2022/01/12 08:26:30;;;;;;;;;;;2.90;47.50;;;;;;5047959;28;19925;-77
2022/01/12 08:28:57;;;;;;;;;;;3.00;47.20;;;;;;5026795;28;19948;-78
2022/01/12 08:31:24;;;;;;;;;;;3.20;47.00;;;;;;5016833;28;20428;-78
2022/01/12 08:33:51;;;;;;;;;;;3.30;46.70;;;;;;5032783;28;19929;-77
2022/01/12 08:36:18;;;;;;;;;;;3.50;46.00;;;;;;5058716;28;19925;-77
2022/01/12 08:38:45;;;;;;;;;;;3.60;46.00;;;;;;5030819;28;19924;-78
2022/01/12 08:41:12;;;;;;;;;;;3.70;45.90;;;;;;5021141;28;19932;-77
2022/01/12 08:43:39;;;;;;;;;;;3.80;45.80;;;;;;5031877;28;20400;-79
2022/01/12 08:46:06;;;;;;;;;;;4.00;45.70;;;;;;5031203;28;19935;-78
2022/01/12 08:48:35;;;;;;;;;;;4.10;44.80;;;;;;5028787;28;19929;-77
2022/01/12 08:51:02;;;;;;;;;;;4.30;44.40;;;;;;5044075;28;19987;-78
2022/01/12 08:53:29;;;;;;;;;;;4.40;43.40;;;;;;5016536;28;19932;-77
2022/01/12 08:55:55;;;;;;;;;;;4.50;43.60;;;;;;5042594;28;19962;-78
2022/01/12 08:58:22;;;;;;;;;;;4.70;42.80;;;;;;5031754;28;20451;-77
2022/01/12 09:00:49;;;;;;;;;;;4.70;43.60;;;;;;5024552;28;19932;-78
2022/01/12 09:03:16;;;;;;;;;;;4.80;42.00;;;;;;5047376;28;19925;-77
2022/01/12 09:05:49;;;;;;;;;;;4.90;41.60;;;;;;5034833;28;19932;-77
2022/01/12 09:08:16;;;;;;;;;;;5.00;41.70;;;;;;5039973;28;20028;-77
2022/01/12 09:10:43;;;;;;;;;;;5.00;41.40;;;;;;5047277;28;19948;-78
2022/01/12 09:13:09;;;;;;;;;;;5.10;41.70;;;;;;5042444;28;19929;-78
2022/01/12 09:15:36;;;;;;;;;;;5.10;41.70;;;;;;5034458;28;19925;-77
2022/01/12 09:18:03;;;;;;;;;;;5.20;41.60;;;;;;5024710;28;19925;-77
2022/01/12 09:20:32;;;;;;;;;;;5.20;41.30;;;;;;5027706;28;20453;-78
2022/01/12 09:22:59;;;;;;;;;;;5.20;41.30;;;;;;5044316;28;20449;-77
2022/01/12 09:25:26;;;;;;;;;;;5.30;41.30;;;;;;5026822;28;20392;-77
2022/01/12 09:27:54;;;;;;;;;;;5.40;41.10;;;;;;5062531;28;19933;-78
2022/01/12 09:30:23;;;;;;;;;;;5.40;40.10;;;;;;5035513;28;20342;-76
2022/01/12 09:32:50;;;;;;;;;;;5.50;39.90;;;;;;5036482;28;19928;-77
2022/01/12 09:35:20;;;;;;;;;;;5.50;39.80;;;;;;5056965;28;19929;-78
2022/01/12 09:37:47;;;;;;;;;;;5.60;39.80;;;;;;5070963;28;19929;-78
2022/01/12 09:40:14;;;;;;;;;;;5.60;39.30;;;;;;5069881;28;19932;-77
2022/01/12 09:42:47;;;;;;;;;;;5.70;39.30;;;;;;5038693;28;19925;-77
2022/01/12 09:45:18;;;;;;;;;;;5.80;38.80;;;;;;5053219;28;20359;-76
2022/01/12 09:47:47;;;;;;;;;;;5.90;39.00;;;;;;5037339;28;19933;-77
2022/01/12 09:50:15;;;;;;;;;;;5.90;38.50;;;;;;5055747;28;19924;-78
2022/01/12 09:52:42;;;;;;;;;;;6.00;39.10;;;;;;5041554;28;19933;-78
2022/01/12 09:55:10;;;;;;;;;;;6.10;38.40;;;;;;5038952;28;19929;-78
2022/01/12 09:57:40;;;;;;;;;;;6.20;38.50;;;;;;5048837;28;19924;-78
2022/01/12 10:00:07;;;;;;;;;;;6.30;37.80;;;;;;5050668;28;19924;-77
2022/01/12 10:02:34;;;;;;;;;;;6.30;37.60;;;;;;5053947;28;19924;-78
2022/01/12 10:05:08;;;;;;;;;;;6.40;37.30;;;;;;5058360;28;19931;-77
2022/01/12 10:07:35;;;;;;;;;;;6.50;38.10;;;;;;5051932;28;20455;-77
2022/01/12 10:10:07;;;;;;;;;;;6.60;38.40;;;;;;5037395;28;19924;-79
2022/01/12 10:12:34;;;;;;;;;;;6.70;37.60;;;;;;5040580;28;20458;-79
2022/01/12 10:15:06;;;;;;;;;;;6.80;37.20;;;;;;5045187;28;19960;-79
2022/01/12 10:17:41;;;;;;;;;;;6.80;36.60;;;;;;5055614;28;20437;-76
2022/01/12 10:20:09;;;;;;;;;;;6.90;36.70;;;;;;5037296;28;20359;-77
2022/01/12 10:22:37;;;;;;;;;;;7.00;37.00;;;;;;5055172;28;19925;-78
2022/01/12 10:25:17;;;;;;;;;;;7.10;37.20;;;;;;5027071;28;19931;-78
2022/01/12 10:27:44;;;;;;;;;;;7.20;37.20;;;;;;5045952;28;19932;-78
2022/01/12 10:30:37;;;;;;;;;;;7.30;36.40;;;;;;5050138;28;20379;-77
2022/01/12 10:33:05;;;;;;;;;;;7.40;36.20;;;;;;5049310;28;19974;-78
2022/01/12 10:35:33;;;;;;;;;;;7.50;36.00;;;;;;5056717;28;19925;-78
2022/01/12 10:38:10;;;;;;;;;;;7.60;35.70;;;;;;5042003;28;19925;-78
2022/01/12 10:40:47;;;;;;;;;;;7.60;35.20;;;;;;5059723;28;19928;-78
2022/01/12 10:43:27;;;;;;;;;;;7.70;35.50;;;;;;5063740;28;19928;-78
2022/01/12 10:45:54;;;;;;;;;;;7.60;36.80;;;;;;5056943;28;19956;-79
2022/01/12 10:48:25;;;;;;;;;;;7.40;37.00;;;;;;5073180;28;20404;-78
2022/01/12 10:50:56;;;;;;;;;;;7.40;37.90;;;;;;5054966;28;20396;-79
2022/01/12 10:53:33;;;;;;;;;;;7.20;38.60;;;;;;5065472;28;19931;-76
2022/01/12 10:56:05;;;;;;;;;;;7.20;39.20;;;;;;5040358;28;19939;-76
2022/01/12 10:58:33;;;;;;;;;;;7.30;39.20;;;;;;5053767;28;19928;-78
2022/01/12 11:00:59;;;;;;;;;;;7.40;39.10;;;;;;5056508;28;20452;-77
2022/01/12 11:03:28;;;;;;;;;;;7.40;38.40;;;;;;5074329;28;19925;-76
2022/01/12 11:05:55;;;;;;;;;;;7.50;38.70;;;;;;5056820;28;20347;-78
2022/01/12 11:08:25;;;;;;;;;;;7.70;38.20;;;;;;5025937;28;19925;-78
2022/01/12 11:10:56;;;;;;;;;;;7.90;37.90;;;;;;5056553;28;19947;-78
2022/01/12 11:13:23;;;;;;;;;;;7.90;35.10;;;;;;5044207;28;19938;-78
2022/01/12 11:15:50;;;;;;;;;;;7.90;35.60;;;;;;5031632;28;19929;-77
2022/01/12 11:18:20;;;;;;;;;;;7.90;35.40;;;;;;5037376;28;19932;-76
2022/01/12 11:20:49;;;;;;;;;;;7.90;36.30;;;;;;5036657;28;19925;-79
2022/01/12 11:23:16;;;;;;;;;;;8.10;36.60;;;;;;5048790;28;19929;-78
2022/01/12 11:25:46;;;;;;;;;;;8.40;35.40;;;;;;5039424;28;20342;-77
2022/01/12 11:28:20;;;;;;;;;;;8.40;33.70;;;;;;5063141;28;19972;-77
2022/01/12 11:30:50;;;;;;;;;;;8.40;34.10;;;;;;5033256;28;19971;-78
2022/01/12 11:33:18;;;;;;;;;;;8.50;34.40;;;;;;5056592;28;20381;-78
2022/01/12 11:35:50;;;;;;;;;;;8.80;33.00;;;;;;5052811;28;19924;-79
2022/01/12 11:38:22;;;;;;;;;;;9.00;33.00;;;;;;5039897;28;19978;-76
2022/01/12 11:40:54;;;;;;;;;;;9.20;33.50;;;;;;5044206;28;19925;-78
2022/01/12 11:43:27;;;;;;;;;;;9.40;33.80;;;;;;5037873;28;19924;-78
2022/01/12 11:46:03;;;;;;;;;;;9.50;33.20;;;;;;5042120;28;19924;-78
2022/01/12 11:48:51;;;;;;;;;;;9.40;31.40;;;;;;5045014;28;19924;-78
2022/01/12 11:51:19;;;;;;;;;;;9.50;34.50;;;;;;5040476;28;19925;-76
2022/01/12 11:53:54;;;;;;;;;;;9.50;35.60;;;;;;5026085;28;20415;-78
2022/01/12 11:56:24;;;;;;;;;;;9.40;34.80;;;;;;5016843;28;19929;-79
2022/01/12 11:59:10;;;;;;;;;;;9.50;34.80;;;;;;5043275;28;19978;-78
2022/01/12 12:01:37;;;;;;;;;;;9.40;35.20;;;;;;5053022;28;19932;-76
2022/01/12 12:04:05;;;;;;;;;;;9.50;35.60;;;;;;5036447;28;19939;-78
2022/01/12 12:06:32;;;;;;;;;;;9.50;35.50;;;;;;5031969;28;20348;-78
2022/01/12 12:09:01;;;;;;;;;;;9.60;34.80;;;;;;5051024;28;20137;-78
2022/01/12 12:11:29;;;;;;;;;;;9.60;35.30;;;;;;5051676;28;19925;-78
2022/01/12 12:14:04;;;;;;;;;;;9.80;35.60;;;;;;5030076;28;19925;-79
2022/01/12 12:16:31;;;;;;;;;;;9.90;35.30;;;;;;5027061;28;19932;-78
2022/01/12 12:19:00;;;;;;;;;;;10.00;34.50;;;;;;5053392;28;19925;-77
2022/01/12 12:21:26;;;;;;;;;;;10.00;34.60;;;;;;5026490;28;19928;-78
2022/01/12 12:23:53;;;;;;;;;;;10.10;34.40;;;;;;5047043;28;19925;-79
2022/01/12 12:26:20;;;;;;;;;;;9.80;33.20;;;;;;5034605;28;19979;-79
2022/01/12 12:28:57;;;;;;;;;;;9.90;33.70;;;;;;5029558;28;20393;-79
2022/01/12 12:31:25;;;;;;;;;;;10.10;34.00;;;;;;5058625;28;19932;-77
2022/01/12 12:34:12;;;;;;;;;;;10.30;35.10;;;;;;5039323;28;20397;-79
2022/01/12 12:36:39;;;;;;;;;;;10.50;34.00;;;;;;5029914;28;19994;-78
2022/01/12 12:39:06;;;;;;;;;;;10.50;32.70;;;;;;5034509;28;19955;-78
2022/01/12 12:41:38;;;;;;;;;;;10.20;33.00;;;;;;5028538;28;21024;-76
2022/01/12 12:44:06;;;;;;;;;;;10.10;32.90;;;;;;5035236;28;19933;-78
2022/01/12 12:46:33;;;;;;;;;;;10.10;33.30;;;;;;5021756;28;19964;-78
2022/01/12 12:49:06;;;;;;;;;;;10.20;33.80;;;;;;5067565;28;19929;-78
2022/01/12 12:51:33;;;;;;;;;;;10.40;34.10;;;;;;5032789;28;19929;-78
2022/01/12 12:54:00;;;;;;;;;;;10.50;34.60;;;;;;5017746;28;19933;-77
2022/01/12 12:56:29;;;;;;;;;;;10.50;35.10;;;;;;5036884;28;20369;-76
2022/01/12 12:58:57;;;;;;;;;;;10.50;35.30;;;;;;5017538;28;20388;-77
2022/01/12 13:01:25;;;;;;;;;;;10.60;34.60;;;;;;5021237;28;19929;-78
2022/01/12 13:03:54;;;;;;;;;;;10.50;34.20;;;;;;5020720;28;20456;-79
2022/01/12 13:06:26;;;;;;;;;;;10.40;34.40;;;;;;5021977;28;19983;-79
2022/01/12 13:08:54;;;;;;;;;;;10.40;34.20;;;;;;5040189;28;19933;-76
2022/01/12 13:11:37;;;;;;;;;;;10.30;34.50;;;;;;5026550;28;19982;-76
2022/01/12 13:14:09;;;;;;;;;;;10.30;35.00;;;;;;5031057;28;19925;-78
2022/01/12 13:16:42;;;;;;;;;;;10.30;34.00;;;;;;5030870;28;19934;-78
2022/01/12 13:19:21;;;;;;;;;;;10.10;34.70;;;;;;5035486;28;19925;-78
2022/01/12 13:21:49;;;;;;;;;;;10.20;34.90;;;;;;5018316;28;19925;-77
2022/01/12 13:24:16;;;;;;;;;;;10.30;34.80;;;;;;5013709;28;19933;-78
2022/01/12 13:26:43;;;;;;;;;;;10.20;34.70;;;;;;5063887;28;19925;-76
2022/01/12 13:29:15;;;;;;;;;;;10.30;35.10;;;;;;5039560;28;19929;-79
2022/01/12 13:31:43;;;;;;;;;;;10.20;36.00;;;;;;5019650;28;19971;-81
2022/01/12 13:34:14;;;;;;;;;;;10.10;36.40;;;;;;5033630;28;20462;-80
2022/01/12 13:36:50;;;;;;;;;;;9.90;36.60;;;;;;5025405;28;19929;-79
2022/01/12 13:39:19;;;;;;;;;;;10.00;37.20;;;;;;5035920;28;19978;-79
2022/01/12 13:41:46;;;;;;;;;;;9.90;37.50;;;;;;5030253;28;19925;-77
2022/01/12 13:44:16;;;;;;;;;;;9.70;37.80;;;;;;5032384;28;19940;-76
2022/01/12 13:46:52;;;;;;;;;;;9.70;38.30;;;;;;5043357;28;19932;-79
2022/01/12 13:49:21;;;;;;;6.90;4.22;;;9.60;38.00;;;;;;5040129;28;19939;-80
2022/01/12 13:51:56;;;;;;;;;;;9.70;38.50;;;;;;5028279;28;20088;-79
2022/01/12 13:54:27;;;;;;;;;;;9.80;38.10;;;;;;5033278;28;19921;-78
2022/01/12 13:56:55;;;;;;;;;;;9.80;37.30;;;;;;5044799;28;19921;-78
2022/01/12 13:59:25;;;;;;;;;;;9.70;37.10;;;;;;5060302;28;19925;-76
2022/01/12 14:01:52;;;;;;;;;;;9.60;37.10;;;;;;5026560;28;19921;-78
2022/01/12 14:04:29;;;;;;;;;;;9.50;38.10;;;;;;5039716;28;20378;-79
2022/01/12 14:07:00;;;;;;;;;;;9.50;38.60;;;;;;5034501;28;19928;-80
2022/01/12 14:09:45;;;;;;;;;;;9.50;38.30;;;;;;5049581;28;19944;-76
2022/01/12 14:12:16;;;;;;;;;;;9.60;38.50;;;;;;5040793;28;19921;-80
2022/01/12 14:14:50;;;;;;;;;;;9.50;38.50;;;;;;5028724;28;19971;-79
2022/01/12 14:17:40;;;;;;;;;;;9.50;38.70;;;;;;5036661;28;19936;-76
2022/01/12 14:20:15;;;;;;;;;;;9.50;39.00;;;;;;5040853;28;20281;-80
2022/01/12 14:22:47;;;;;;;;;;;9.60;38.70;;;;;;5044116;28;19920;-80
2022/01/12 14:25:14;;;;;;;;;;;9.50;39.10;;;;;;5035551;28;19925;-79
2022/01/12 14:27:49;;;;;;;;;;;9.50;39.60;;;;;;5046360;28;20422;-78
2022/01/12 14:30:16;;;;;;;;;;;9.50;39.80;;;;;;5055125;28;19925;-78
2022/01/12 14:32:44;;;;;;;;;;;9.40;39.30;;;;;;5042268;28;19921;-78
2022/01/12 14:35:12;;;;;;;;;;;9.40;39.70;;;;;;5054995;28;19943;-78
2022/01/12 14:37:40;;;;;;;;;;;9.40;39.60;;;;;;5042577;28;19974;-79
2022/01/12 14:40:07;;;;;;;;;;;9.40;39.40;;;;;;5037613;28;19971;-80
2022/01/12 14:42:40;;;;;;;;;;;9.40;39.00;;;;;;5036278;28;19967;-76
2022/01/12 14:45:08;;;;;;;;;;;9.30;39.40;;;;;;5042083;28;19921;-76
2022/01/12 14:47:35;;;;;;;;;;;9.30;39.50;;;;;;5043091;28;20305;-78
2022/01/12 14:50:03;;;;;;;;;;;9.30;40.50;;;;;;5048382;28;19935;-80
2022/01/12 14:52:29;;;;;;;;;;;9.20;39.30;;;;;;5055413;28;20324;-79
2022/01/12 14:54:56;;;;;;;;;;;9.20;39.50;;;;;;5056331;28;19929;-78
2022/01/12 14:57:23;;;;;;;;;;;9.10;40.00;;;;;;5039592;28;19928;-76
2022/01/12 14:59:53;;;;;;;;;;;9.10;40.20;;;;;;5037923;28;19928;-79
2022/01/12 15:02:20;;;;;;;;;;;9.10;40.20;;;;;;5040096;28;19925;-78
2022/01/12 15:04:47;;;;;;;;;;;9.10;40.20;;;;;;5033676;28;19963;-76
2022/01/12 15:07:14;;;;;;;;;;;9.10;40.50;;;;;;5024792;28;19928;-79
2022/01/12 15:09:42;;;;;;;;;;;9.10;40.80;;;;;;5030576;28;19979;-79
2022/01/12 15:12:14;;;;;;;;;;;8.90;41.30;;;;;;5034336;28;19920;-79
2022/01/12 15:17:09;;;;;;;;;;;8.90;41.60;;;;;;5046807;28;19921;-77
2022/01/12 15:19:37;;;;;;;;;;;8.90;41.70;;;;;;5038037;28;19937;-80
2022/01/12 15:22:04;;;;;;;;;;;8.90;42.10;;;;;;5044448;28;19924;-76
2022/01/12 15:24:32;;;;;;;;;;;8.90;42.40;;;;;;5064377;28;19928;-76
2022/01/12 15:26:59;;;;;;;;;;;8.90;42.70;;;;;;5039816;28;19954;-80
2022/01/12 15:29:25;;;;;;;;;;;8.80;42.40;;;;;;5054072;28;19969;-79
2022/01/12 15:31:52;;;;;;;;;;;8.80;42.70;;;;;;5048102;28;20336;-80
2022/01/12 15:34:19;;;;;;;;;;;8.80;42.80;;;;;;5045414;28;19963;-79
2022/01/12 15:36:47;;;;;;;;;;;8.80;43.10;;;;;;5047815;28;19986;-77
2022/01/12 15:39:14;;;;;;;;;;;8.80;43.30;;;;;;5045581;28;19951;-77
2022/01/12 15:41:41;;;;;;;;;;;8.70;43.60;;;;;;5031248;28;19967;-80
2022/01/12 15:44:08;;;;;;;;;;;8.60;43.60;;;;;;5034169;28;19929;-80
2022/01/12 15:46:35;;;;;;;;;;;8.40;43.80;;;;;;5033606;28;19924;-78
2022/01/12 15:49:02;;;;;;;;;;;8.20;44.30;;;;;;5041534;28;19931;-79
2022/01/12 15:51:29;;;;;;;;;;;8.10;44.30;;;;;;5034828;28;19924;-78
2022/01/12 15:53:56;;;;;;;;;;;8.00;44.30;;;;;;5073287;28;19950;-76
2022/01/12 15:56:24;;;;;;;;;;;7.90;44.60;;;;;;5054705;28;19924;-79
2022/01/12 15:58:51;;;;;;;;;;;7.70;43.40;;;;;;5055927;28;19925;-79
2022/01/12 16:01:18;;;;;;;;;;;7.50;43.60;;;;;;5055154;28;19927;-79